createdAt,value
2024-02-29T00:00:46.289Z,9.443583
2024-02-29T00:01:45.450Z,9.443681
2024-02-29T00:02:45.302Z,9.443581
2024-02-29T00:03:45.323Z,9.443528
2024-02-29T00:04:45.378Z,9.443573
2024-02-29T00:05:45.280Z,9.443550
2024-02-29T00:06:45.283Z,9.443427
2024-02-29T00:07:45.273Z,9.443406
2024-02-29T00:08:45.290Z,9.443559
2024-02-29T00:09:45.301Z,9.443468
2024-02-29T00:10:45.304Z,9.443348
2024-02-29T00:11:45.271Z,9.443277
2024-02-29T00:12:45.271Z,9.443282
2024-02-29T00:13:45.268Z,9.443439
2024-02-29T00:14:45.259Z,9.443542
2024-02-29T00:15:45.271Z,9.443515
2024-02-29T00:16:45.254Z,9.443252
2024-02-29T00:17:45.258Z,9.443424
2024-02-29T00:18:45.280Z,9.443452
2024-02-29T00:19:45.195Z,9.443364
2024-02-29T00:20:45.218Z,9.443235
2024-02-29T00:21:45.209Z,9.443227
2024-02-29T00:22:45.218Z,9.443397
2024-02-29T00:23:45.196Z,9.443226
2024-02-29T00:24:45.197Z,9.443490
2024-02-29T00:25:45.172Z,9.443532
2024-02-29T00:26:45.265Z,9.443701
2024-02-29T00:27:45.194Z,9.443635
2024-02-29T00:28:45.144Z,9.443671
2024-02-29T00:29:45.136Z,9.443705
2024-02-29T00:30:45.202Z,9.443735
2024-02-29T00:31:45.141Z,9.443710
2024-02-29T00:32:45.174Z,9.443678
2024-02-29T00:33:45.180Z,9.443777
2024-02-29T00:34:45.088Z,9.443666
2024-02-29T00:35:49.335Z,9.443661
2024-02-29T00:36:46.248Z,9.443733
2024-02-29T00:37:45.098Z,9.443691
2024-02-29T00:38:45.084Z,9.443733
2024-02-29T00:39:45.094Z,9.443758
2024-02-29T00:40:45.150Z,9.443688
2024-02-29T00:41:45.110Z,9.443659
2024-02-29T00:42:45.091Z,9.443731
2024-02-29T00:43:45.063Z,9.443674
2024-02-29T00:44:45.084Z,9.443725
2024-02-29T00:45:45.128Z,9.443661
2024-02-29T00:46:45.115Z,9.443679
2024-02-29T00:47:45.041Z,9.443646
2024-02-29T00:48:45.040Z,9.443672
2024-02-29T00:49:45.019Z,9.443605
2024-02-29T00:50:45.008Z,9.443559
2024-02-29T00:51:45.108Z,9.443723
2024-02-29T00:52:44.979Z,9.443756
2024-02-29T00:53:44.995Z,9.443813
2024-02-29T00:54:45.015Z,9.443728
2024-02-29T00:55:44.967Z,9.443741
2024-02-29T00:56:44.988Z,9.443736
2024-02-29T00:57:44.988Z,9.443681
2024-02-29T00:58:44.957Z,9.443726
2024-02-29T00:59:44.942Z,9.443715
2024-02-29T01:00:45.078Z,9.443748
2024-02-29T01:01:45.091Z,9.443647
2024-02-29T01:02:44.976Z,9.443510
2024-02-29T01:03:44.929Z,9.443606
2024-02-29T01:04:44.919Z,9.443728
2024-02-29T01:05:44.925Z,9.443672
2024-02-29T01:06:44.933Z,9.443723
2024-02-29T01:07:45.078Z,9.443600
2024-02-29T01:08:44.904Z,9.443634
2024-02-29T01:09:44.936Z,9.443632
2024-02-29T01:10:44.934Z,9.443569
2024-02-29T01:11:44.894Z,9.443557
2024-02-29T01:12:44.984Z,9.443530
2024-02-29T01:13:44.867Z,9.443552
2024-02-29T01:14:44.865Z,9.443527
2024-02-29T01:15:44.923Z,9.443644
2024-02-29T01:16:44.864Z,9.443572
2024-02-29T01:17:44.838Z,9.443535
2024-02-29T01:18:44.847Z,9.443741
2024-02-29T01:19:44.857Z,9.443686
2024-02-29T01:20:44.826Z,9.443687
2024-02-29T01:21:44.841Z,9.443569
2024-02-29T01:22:44.827Z,9.443628
2024-02-29T01:23:44.803Z,9.443677
2024-02-29T01:24:44.835Z,9.443629
2024-02-29T01:25:45.796Z,9.443626
2024-02-29T01:26:44.788Z,9.444005
2024-02-29T01:27:44.869Z,9.443903
2024-02-29T01:28:44.815Z,9.443689
2024-02-29T01:29:44.778Z,9.443650
2024-02-29T01:30:44.859Z,9.443580
2024-02-29T01:31:44.767Z,9.443579
2024-02-29T01:32:44.762Z,9.443709
2024-02-29T01:33:44.754Z,9.443632
2024-02-29T01:34:44.722Z,9.443769
2024-02-29T01:35:44.716Z,9.443827
2024-02-29T01:36:44.747Z,9.443696
2024-02-29T01:37:44.720Z,9.443657
2024-02-29T01:38:44.690Z,9.443649
2024-02-29T01:39:44.775Z,9.443617
2024-02-29T01:40:44.711Z,9.443530
2024-02-29T01:41:44.668Z,9.443606
2024-02-29T01:42:44.755Z,9.443491
2024-02-29T01:43:44.658Z,9.443613
2024-02-29T01:44:44.740Z,9.443568
2024-02-29T01:45:44.732Z,9.443644
2024-02-29T01:46:44.688Z,9.443604
2024-02-29T01:47:44.683Z,9.443607
2024-02-29T01:48:44.628Z,9.443717
2024-02-29T01:49:44.639Z,9.443661
2024-02-29T01:50:44.661Z,9.443529
2024-02-29T01:51:44.648Z,9.443526
2024-02-29T01:52:44.627Z,9.443658
2024-02-29T01:53:44.601Z,9.443709
2024-02-29T01:54:45.630Z,9.443731
2024-02-29T01:55:44.608Z,9.443675
2024-02-29T01:56:44.614Z,9.443633
2024-02-29T01:57:44.621Z,9.443600
2024-02-29T01:58:44.569Z,9.443699
2024-02-29T01:59:44.569Z,9.443720
2024-02-29T02:00:44.609Z,9.443837
2024-02-29T02:01:44.669Z,9.443898
2024-02-29T02:02:44.542Z,9.443791
2024-02-29T02:03:44.610Z,9.443784
2024-02-29T02:04:44.583Z,9.443714
2024-02-29T02:05:44.531Z,9.443719
2024-02-29T02:06:44.524Z,9.443699
2024-02-29T02:07:44.543Z,9.443638
2024-02-29T02:08:44.511Z,9.443621
2024-02-29T02:09:44.519Z,9.443631
2024-02-29T02:10:44.609Z,9.443521
2024-02-29T02:11:44.540Z,9.443413
2024-02-29T02:12:44.808Z,9.443504
2024-02-29T02:13:44.507Z,9.443510
2024-02-29T02:14:44.485Z,9.443521
2024-02-29T02:15:44.510Z,9.443510
2024-02-29T02:16:44.463Z,9.443479
2024-02-29T02:17:44.484Z,9.443440
2024-02-29T02:18:44.519Z,9.443590
2024-02-29T02:19:44.468Z,9.443655
2024-02-29T02:20:44.466Z,9.443710
2024-02-29T02:21:44.476Z,9.443714
2024-02-29T02:22:44.414Z,9.443771
2024-02-29T02:23:44.435Z,9.443754
2024-02-29T02:24:44.442Z,9.443642
2024-02-29T02:25:44.410Z,9.443511
2024-02-29T02:26:44.412Z,9.443616
2024-02-29T02:27:44.482Z,9.443686
2024-02-29T02:28:44.438Z,9.443628
2024-02-29T02:29:44.489Z,9.443649
2024-02-29T02:30:44.384Z,9.443607
2024-02-29T02:31:44.401Z,9.443534
2024-02-29T02:32:44.425Z,9.443548
2024-02-29T02:33:44.444Z,9.443761
2024-02-29T02:34:44.396Z,9.443775
2024-02-29T02:35:44.361Z,9.443714
2024-02-29T02:36:44.372Z,9.443663
2024-02-29T02:37:44.368Z,9.443775
2024-02-29T02:38:44.360Z,9.443709
2024-02-29T02:39:44.395Z,9.443724
2024-02-29T02:40:44.336Z,9.443794
2024-02-29T02:41:44.331Z,9.443715
2024-02-29T02:42:45.399Z,9.443606
2024-02-29T02:43:44.330Z,9.443755
2024-02-29T02:44:44.341Z,9.443794
2024-02-29T02:45:44.337Z,9.443685
2024-02-29T02:46:44.272Z,9.443681
2024-02-29T02:47:44.329Z,9.443665
2024-02-29T02:48:44.297Z,9.443647
2024-02-29T02:49:44.261Z,9.443729
2024-02-29T02:50:44.512Z,9.443649
2024-02-29T02:51:44.316Z,9.443703
2024-02-29T02:52:44.277Z,9.443774
2024-02-29T02:53:44.273Z,9.443714
2024-02-29T02:54:44.280Z,9.443724
2024-02-29T02:55:44.253Z,9.443705
2024-02-29T02:56:44.279Z,9.443694
2024-02-29T02:57:44.231Z,9.443574
2024-02-29T02:58:44.246Z,9.443619
2024-02-29T02:59:44.244Z,9.443706
2024-02-29T03:00:44.272Z,9.443735
2024-02-29T03:01:44.302Z,9.443752
2024-02-29T03:02:44.220Z,9.443787
2024-02-29T03:03:44.213Z,9.443811
2024-02-29T03:04:44.204Z,9.443756
2024-02-29T03:05:44.178Z,9.443817
2024-02-29T03:06:45.253Z,9.443901
2024-02-29T03:07:44.197Z,9.443866
2024-02-29T03:08:44.168Z,9.443810
2024-02-29T03:09:44.241Z,9.443770
2024-02-29T03:10:44.190Z,9.443807
2024-02-29T03:11:44.174Z,9.443716
2024-02-29T03:12:44.170Z,9.443769
2024-02-29T03:13:44.179Z,9.443798
2024-02-29T03:14:44.155Z,9.443743
2024-02-29T03:15:44.203Z,9.443735
2024-02-29T03:16:44.151Z,9.443713
2024-02-29T03:17:44.144Z,9.443750
2024-02-29T03:18:44.159Z,9.443810
2024-02-29T03:19:44.112Z,9.443769
2024-02-29T03:20:44.195Z,9.443724
2024-02-29T03:21:44.170Z,9.443542
2024-02-29T03:22:44.104Z,9.443680
2024-02-29T03:23:44.131Z,9.443765
2024-02-29T03:24:44.119Z,9.443748
2024-02-29T03:25:45.080Z,9.443679
2024-02-29T03:26:44.084Z,9.443727
2024-02-29T03:27:44.121Z,9.443899
2024-02-29T03:28:44.079Z,9.443910
2024-02-29T03:29:44.072Z,9.443854
2024-02-29T03:30:44.060Z,9.443738
2024-02-29T03:31:44.052Z,9.443666
2024-02-29T03:32:44.095Z,9.443680
2024-02-29T03:33:44.117Z,9.443721
2024-02-29T03:34:44.046Z,9.443867
2024-02-29T03:35:44.069Z,9.443790
2024-02-29T03:36:44.097Z,9.443769
2024-02-29T03:37:44.012Z,9.443740
2024-02-29T03:38:44.026Z,9.443757
2024-02-29T03:39:44.036Z,9.443784
2024-02-29T03:40:44.000Z,9.443698
2024-02-29T03:41:44.001Z,9.443664
2024-02-29T03:42:44.073Z,9.443749
2024-02-29T03:43:43.995Z,9.443781
2024-02-29T03:44:44.015Z,9.443768
2024-02-29T03:45:44.004Z,9.443736
2024-02-29T03:46:43.976Z,9.443761
2024-02-29T03:47:44.015Z,9.443716
2024-02-29T03:48:43.973Z,9.443754
2024-02-29T03:49:43.987Z,9.443715
2024-02-29T03:50:43.958Z,9.443787
2024-02-29T03:51:44.002Z,9.443673
2024-02-29T03:52:43.951Z,9.443489
2024-02-29T03:53:43.932Z,9.443634
2024-02-29T03:54:43.942Z,9.443702
2024-02-29T03:55:44.776Z,9.443670
2024-02-29T03:56:43.928Z,9.443785
2024-02-29T03:57:43.911Z,9.443737
2024-02-29T03:58:43.910Z,9.443711
2024-02-29T03:59:43.895Z,9.443674
2024-02-29T04:00:43.902Z,9.443525
2024-02-29T04:01:44.030Z,9.443536
2024-02-29T04:02:43.877Z,9.443651
2024-02-29T04:03:43.933Z,9.443711
2024-02-29T04:04:43.868Z,9.443682
2024-02-29T04:05:43.901Z,9.443676
2024-02-29T04:06:43.945Z,9.443750
2024-02-29T04:07:43.923Z,9.443682
2024-02-29T04:08:43.865Z,9.443739
2024-02-29T04:09:43.901Z,9.443748
2024-02-29T04:10:43.881Z,9.443797
2024-02-29T04:11:43.827Z,9.443850
2024-02-29T04:12:43.845Z,9.443788
2024-02-29T04:13:43.827Z,9.443730
2024-02-29T04:14:43.826Z,9.443810
2024-02-29T04:15:44.782Z,9.443804
2024-02-29T04:16:43.830Z,9.443776
2024-02-29T04:17:43.843Z,9.443765
2024-02-29T04:18:43.807Z,9.443752
2024-02-29T04:19:43.770Z,9.443819
2024-02-29T04:20:43.788Z,9.443729
2024-02-29T04:21:43.876Z,9.443736
2024-02-29T04:22:43.790Z,9.443797
2024-02-29T04:23:43.817Z,9.443740
2024-02-29T04:24:43.922Z,9.443725
2024-02-29T04:25:43.772Z,9.443727
2024-02-29T04:26:43.758Z,9.443768
2024-02-29T04:27:43.761Z,9.443831
2024-02-29T04:28:43.736Z,9.443802
2024-02-29T04:29:43.747Z,9.443731
2024-02-29T04:30:43.903Z,9.443715
2024-02-29T04:31:43.746Z,9.443716
2024-02-29T04:32:43.777Z,9.443755
2024-02-29T04:33:43.727Z,9.443799
2024-02-29T04:34:43.685Z,9.443795
2024-02-29T04:35:43.710Z,9.443653
2024-02-29T04:36:43.778Z,9.443727
2024-02-29T04:37:43.684Z,9.443831
2024-02-29T04:38:43.686Z,9.443798
2024-02-29T04:39:43.698Z,9.443913
2024-02-29T04:40:43.676Z,9.443809
2024-02-29T04:41:43.695Z,9.443727
2024-02-29T04:42:43.675Z,9.443730
2024-02-29T04:43:43.618Z,9.443746
2024-02-29T04:44:44.628Z,9.443741
2024-02-29T04:45:43.662Z,9.443727
2024-02-29T04:46:43.679Z,9.443698
2024-02-29T04:47:43.649Z,9.443736
2024-02-29T04:48:43.733Z,9.443705
2024-02-29T04:49:43.616Z,9.443719
2024-02-29T04:50:43.608Z,9.443735
2024-02-29T04:51:43.691Z,9.443663
2024-02-29T04:52:43.618Z,9.443642
2024-02-29T04:53:43.609Z,9.443635
2024-02-29T04:54:43.645Z,9.443689
2024-02-29T04:55:43.578Z,9.443724
2024-02-29T04:56:43.569Z,9.443709
2024-02-29T04:57:43.607Z,9.443612
2024-02-29T04:58:43.634Z,9.443617
2024-02-29T04:59:43.554Z,9.443653
2024-02-29T05:00:43.672Z,9.443645
2024-02-29T05:01:43.641Z,9.443706
2024-02-29T05:02:43.548Z,9.443679
2024-02-29T05:03:43.588Z,9.443662
2024-02-29T05:04:43.528Z,9.443681
2024-02-29T05:05:43.528Z,9.443684
2024-02-29T05:06:43.562Z,9.443729
2024-02-29T05:07:43.543Z,9.443718
2024-02-29T05:08:43.561Z,9.443702
2024-02-29T05:09:43.555Z,9.443674
2024-02-29T05:10:43.539Z,9.443702
2024-02-29T05:11:43.479Z,9.443738
2024-02-29T05:12:43.504Z,9.443720
2024-02-29T05:13:43.497Z,9.443734
2024-02-29T05:14:43.551Z,9.443726
2024-02-29T05:15:43.529Z,9.443701
2024-02-29T05:16:43.487Z,9.443727
2024-02-29T05:17:43.502Z,9.443733
2024-02-29T05:18:43.531Z,9.443698
2024-02-29T05:19:43.495Z,9.443711
2024-02-29T05:20:43.532Z,9.443650
2024-02-29T05:21:43.486Z,9.443630
2024-02-29T05:22:43.437Z,9.443675
2024-02-29T05:23:43.466Z,9.443621
2024-02-29T05:24:43.494Z,9.443658
2024-02-29T05:25:43.464Z,9.443649
2024-02-29T05:26:43.760Z,9.443697
2024-02-29T05:27:43.447Z,9.443726
2024-02-29T05:28:43.427Z,9.443619
2024-02-29T05:29:44.265Z,9.443616
2024-02-29T05:30:43.462Z,9.443668
2024-02-29T05:31:43.439Z,9.443688
2024-02-29T05:32:43.448Z,9.443686
2024-02-29T05:33:43.498Z,9.443665
2024-02-29T05:34:43.386Z,9.443716
2024-02-29T05:35:43.391Z,9.443771
2024-02-29T05:36:43.497Z,9.443711
2024-02-29T05:37:43.371Z,9.443756
2024-02-29T05:38:43.379Z,9.443691
2024-02-29T05:39:43.492Z,9.443749
2024-02-29T05:40:43.368Z,9.443687
2024-02-29T05:41:43.342Z,9.443707
2024-02-29T05:42:43.420Z,9.443735
2024-02-29T05:43:43.356Z,9.443781
2024-02-29T05:44:43.381Z,9.443739
2024-02-29T05:45:43.383Z,9.443781
2024-02-29T05:46:43.336Z,9.443768
2024-02-29T05:47:43.375Z,9.443781
2024-02-29T05:48:43.455Z,9.443729
2024-02-29T05:49:43.344Z,9.443736
2024-02-29T05:50:43.340Z,9.443728
2024-02-29T05:51:43.418Z,9.443696
2024-02-29T05:52:43.356Z,9.443742
2024-02-29T05:53:43.376Z,9.443733
2024-02-29T05:54:43.347Z,9.443726
2024-02-29T05:55:43.436Z,9.443696
2024-02-29T05:56:43.288Z,9.443748
2024-02-29T05:57:43.556Z,9.443720
2024-02-29T05:58:43.276Z,9.443755
2024-02-29T05:59:43.295Z,9.443686
2024-02-29T06:00:43.344Z,9.443757
2024-02-29T06:01:43.353Z,9.443779
2024-02-29T06:02:43.312Z,9.443767
2024-02-29T06:03:43.374Z,9.443843
2024-02-29T06:04:43.256Z,9.443833
2024-02-29T06:05:43.249Z,9.443677
2024-02-29T06:06:43.250Z,9.443719
2024-02-29T06:07:43.238Z,9.443735
2024-02-29T06:08:43.215Z,9.443699
2024-02-29T06:09:43.237Z,9.443638
2024-02-29T06:10:43.228Z,9.443702
2024-02-29T06:11:43.190Z,9.443716
2024-02-29T06:12:43.242Z,9.443714
2024-02-29T06:13:43.236Z,9.443877
2024-02-29T06:14:43.208Z,9.443814
2024-02-29T06:15:43.444Z,9.443643
2024-02-29T06:16:43.185Z,9.443681
2024-02-29T06:17:43.207Z,9.443648
2024-02-29T06:18:43.186Z,9.443612
2024-02-29T06:19:43.142Z,9.443552
2024-02-29T06:20:43.263Z,9.443765
2024-02-29T06:21:43.188Z,9.443755
2024-02-29T06:22:43.153Z,9.443703
2024-02-29T06:23:43.250Z,9.443742
2024-02-29T06:24:43.124Z,9.443681
2024-02-29T06:25:43.132Z,9.443656
2024-02-29T06:26:43.136Z,9.443720
2024-02-29T06:27:43.123Z,9.443708
2024-02-29T06:28:43.112Z,9.443769
2024-02-29T06:29:43.119Z,9.443763
2024-02-29T06:30:43.184Z,9.443765
2024-02-29T06:31:43.125Z,9.443762
2024-02-29T06:32:43.129Z,9.443782
2024-02-29T06:33:43.132Z,9.443808
2024-02-29T06:34:43.092Z,9.443772
2024-02-29T06:35:43.102Z,9.443781
2024-02-29T06:36:43.126Z,9.443798
2024-02-29T06:37:43.076Z,9.443786
2024-02-29T06:38:43.078Z,9.443810
2024-02-29T06:39:43.120Z,9.443748
2024-02-29T06:40:43.117Z,9.443737
2024-02-29T06:41:43.087Z,9.443735
2024-02-29T06:42:43.173Z,9.443701
2024-02-29T06:43:43.048Z,9.443723
2024-02-29T06:44:44.033Z,9.443727
2024-02-29T06:45:43.051Z,9.443751
2024-02-29T06:46:43.064Z,9.443725
2024-02-29T06:47:43.779Z,9.443758
2024-02-29T06:48:43.035Z,9.443755
2024-02-29T06:49:42.982Z,9.443733
2024-02-29T06:50:43.049Z,9.443756
2024-02-29T06:51:43.018Z,9.443808
2024-02-29T06:52:42.953Z,9.443825
2024-02-29T06:53:42.974Z,9.443802
2024-02-29T06:54:43.015Z,9.443769
2024-02-29T06:55:42.966Z,9.443742
2024-02-29T06:56:42.966Z,9.443732
2024-02-29T06:57:42.957Z,9.443725
2024-02-29T06:58:42.942Z,9.443740
2024-02-29T06:59:42.943Z,9.443725
2024-02-29T07:00:42.989Z,9.443699
2024-02-29T07:01:43.001Z,9.443733
2024-02-29T07:02:42.931Z,9.443673
2024-02-29T07:03:42.968Z,9.443650
2024-02-29T07:04:42.943Z,9.443653
2024-02-29T07:05:42.938Z,9.443685
2024-02-29T07:06:43.112Z,9.443695
2024-02-29T07:07:42.929Z,9.443653
2024-02-29T07:08:42.948Z,9.443630
2024-02-29T07:09:42.893Z,9.443689
2024-02-29T07:10:42.886Z,9.443671
2024-02-29T07:11:43.020Z,9.443695
2024-02-29T07:12:42.918Z,9.443692
2024-02-29T07:13:42.881Z,9.443685
2024-02-29T07:14:42.886Z,9.443692
2024-02-29T07:15:42.899Z,9.443723
2024-02-29T07:16:42.842Z,9.443703
2024-02-29T07:17:42.857Z,9.443649
2024-02-29T07:18:42.964Z,9.443707
2024-02-29T07:19:42.835Z,9.443708
2024-02-29T07:20:42.913Z,9.443629
2024-02-29T07:21:42.823Z,9.443608
2024-02-29T07:22:42.876Z,9.443678
2024-02-29T07:23:42.785Z,9.443753
2024-02-29T07:24:42.819Z,9.443710
2024-02-29T07:25:42.790Z,9.443742
2024-02-29T07:26:42.857Z,9.443732
2024-02-29T07:27:42.816Z,9.443744
2024-02-29T07:28:42.783Z,9.443709
2024-02-29T07:29:42.766Z,9.443696
2024-02-29T07:30:42.807Z,9.443699
2024-02-29T07:31:42.774Z,9.443714
2024-02-29T07:32:42.806Z,9.443675
2024-02-29T07:33:42.846Z,9.443668
2024-02-29T07:34:42.799Z,9.443734
2024-02-29T07:35:42.774Z,9.443741
2024-02-29T07:36:42.810Z,9.443767
2024-02-29T07:37:42.789Z,9.443727
2024-02-29T07:38:42.751Z,9.443702
2024-02-29T07:39:42.750Z,9.443808
2024-02-29T07:40:42.756Z,9.443779
2024-02-29T07:41:42.709Z,9.443777
2024-02-29T07:42:42.790Z,9.443713
2024-02-29T07:43:42.693Z,9.443740
2024-02-29T07:44:42.704Z,9.443758
2024-02-29T07:45:42.730Z,9.443717
2024-02-29T07:46:42.681Z,9.443753
2024-02-29T07:47:42.714Z,9.443755
2024-02-29T07:48:42.682Z,9.443686
2024-02-29T07:49:42.633Z,9.443704
2024-02-29T07:50:42.658Z,9.443729
2024-02-29T07:51:42.719Z,9.443742
2024-02-29T07:52:42.699Z,9.443752
2024-02-29T07:53:42.637Z,9.443758
2024-02-29T07:54:42.661Z,9.443752
2024-02-29T07:55:42.647Z,9.443805
2024-02-29T07:56:42.679Z,9.443757
2024-02-29T07:57:42.647Z,9.443711
2024-02-29T07:58:42.602Z,9.443742
2024-02-29T07:59:42.594Z,9.443723
2024-02-29T08:00:42.627Z,9.443729
2024-02-29T08:01:42.605Z,9.443684
2024-02-29T08:02:42.574Z,9.443755
2024-02-29T08:03:42.601Z,9.443769
2024-02-29T08:04:42.621Z,9.443811
2024-02-29T08:05:42.559Z,9.443898
2024-02-29T08:06:42.556Z,9.443777
2024-02-29T08:07:42.567Z,9.443665
2024-02-29T08:08:42.537Z,9.443661
2024-02-29T08:09:42.591Z,9.443753
2024-02-29T08:10:42.533Z,9.443605
2024-02-29T08:11:42.597Z,9.443647
2024-02-29T08:12:42.575Z,9.443692
2024-02-29T08:13:42.534Z,9.443629
2024-02-29T08:14:42.513Z,9.443636
2024-02-29T08:15:42.547Z,9.443649
2024-02-29T08:16:42.521Z,9.443537
2024-02-29T08:17:42.505Z,9.443551
2024-02-29T08:18:43.168Z,9.443590
2024-02-29T08:19:42.513Z,9.443611
2024-02-29T08:20:42.541Z,9.443563
2024-02-29T08:21:42.490Z,9.443531
2024-02-29T08:22:42.487Z,9.443674
2024-02-29T08:23:42.524Z,9.443580
2024-02-29T08:24:42.533Z,9.443663
2024-02-29T08:25:42.466Z,9.443820
2024-02-29T08:26:42.437Z,9.443699
2024-02-29T08:27:42.540Z,9.443652
2024-02-29T08:28:42.539Z,9.443695
2024-02-29T08:29:42.495Z,9.443572
2024-02-29T08:30:42.476Z,9.443488
2024-02-29T08:31:42.571Z,9.443531
2024-02-29T08:32:42.506Z,9.443513
2024-02-29T08:33:42.538Z,9.443637
2024-02-29T08:34:42.515Z,9.443679
2024-02-29T08:35:42.399Z,9.443690
2024-02-29T08:36:42.428Z,9.443703
2024-02-29T08:37:42.372Z,9.443551
2024-02-29T08:38:42.366Z,9.443582
2024-02-29T08:39:42.694Z,9.443583
2024-02-29T08:40:42.551Z,9.443525
2024-02-29T08:41:42.359Z,9.443510
2024-02-29T08:42:42.403Z,9.443525
2024-02-29T08:43:42.340Z,9.443544
2024-02-29T08:44:42.346Z,9.443433
2024-02-29T08:45:42.379Z,9.443454
2024-02-29T08:46:42.321Z,9.443485
2024-02-29T08:47:42.440Z,9.443614
2024-02-29T08:48:42.346Z,9.443754
2024-02-29T08:49:42.304Z,9.443688
2024-02-29T08:50:42.334Z,9.443481
2024-02-29T08:51:42.390Z,9.443605
2024-02-29T08:52:42.286Z,9.443624
2024-02-29T08:53:42.282Z,9.443680
2024-02-29T08:54:42.275Z,9.443747
2024-02-29T08:55:42.285Z,9.443724
2024-02-29T08:56:42.264Z,9.443677
2024-02-29T08:57:42.289Z,9.443650
2024-02-29T08:58:42.243Z,9.443689
2024-02-29T08:59:42.229Z,9.443651
2024-02-29T09:00:42.295Z,9.443599
2024-02-29T09:01:42.313Z,9.443664
2024-02-29T09:02:42.232Z,9.443667
2024-02-29T09:03:42.214Z,9.443679
2024-02-29T09:04:42.244Z,9.443681
2024-02-29T09:05:42.194Z,9.443592
2024-02-29T09:06:42.443Z,9.443587
2024-02-29T09:07:42.229Z,9.443644
2024-02-29T09:08:42.186Z,9.443666
2024-02-29T09:09:42.213Z,9.443713
2024-02-29T09:10:42.167Z,9.443659
2024-02-29T09:11:42.180Z,9.443701
2024-02-29T09:12:42.254Z,9.443710
2024-02-29T09:13:43.264Z,9.443682
2024-02-29T09:14:42.191Z,9.443603
2024-02-29T09:15:42.183Z,9.443539
2024-02-29T09:16:42.122Z,9.443476
2024-02-29T09:17:42.159Z,9.443539
2024-02-29T09:18:42.159Z,9.443589
2024-02-29T09:19:42.106Z,9.443715
2024-02-29T09:20:42.103Z,9.443768
2024-02-29T09:21:42.117Z,9.443697
2024-02-29T09:22:42.105Z,9.443739
2024-02-29T09:23:42.153Z,9.443547
2024-02-29T09:24:42.127Z,9.443450
2024-02-29T09:25:42.081Z,9.443398
2024-02-29T09:26:42.077Z,9.443580
2024-02-29T09:27:42.076Z,9.443663
2024-02-29T09:28:42.118Z,9.443727
2024-02-29T09:29:42.067Z,9.443763
2024-02-29T09:30:42.095Z,9.443672
2024-02-29T09:31:42.039Z,9.443623
2024-02-29T09:32:42.051Z,9.443717
2024-02-29T09:33:42.169Z,9.443768
2024-02-29T09:34:46.068Z,9.443774
2024-02-29T09:35:44.054Z,9.443756
2024-02-29T09:36:42.005Z,9.443645
2024-02-29T09:37:41.997Z,9.443664
2024-02-29T09:38:41.996Z,9.443592
2024-02-29T09:39:42.069Z,9.443572
2024-02-29T09:40:49.199Z,9.443688
2024-02-29T09:41:59.636Z,9.443639
2024-02-29T09:42:42.986Z,9.443732
2024-02-29T09:43:41.970Z,9.443662
2024-02-29T09:44:41.962Z,9.443730
2024-02-29T09:45:41.980Z,9.443712
2024-02-29T09:46:41.963Z,9.443738
2024-02-29T09:47:42.970Z,9.443704
2024-02-29T09:48:41.928Z,9.443753
2024-02-29T09:49:42.325Z,9.443663
2024-02-29T09:50:42.946Z,9.443666
2024-02-29T09:51:41.964Z,9.443628
2024-02-29T09:52:41.905Z,9.443665
2024-02-29T09:53:41.903Z,9.443729
2024-02-29T09:54:41.935Z,9.443750
2024-02-29T09:55:41.919Z,9.443820
2024-02-29T09:56:41.908Z,9.443834
2024-02-29T09:57:41.923Z,9.443631
2024-02-29T09:58:41.845Z,9.443710
2024-02-29T09:59:41.911Z,9.443805
2024-02-29T10:00:41.946Z,9.443585
2024-02-29T10:01:42.001Z,9.443685
2024-02-29T10:02:41.849Z,9.443796
2024-02-29T10:03:41.852Z,9.443759
2024-02-29T10:04:41.822Z,9.443412
2024-02-29T10:05:41.846Z,9.443439
2024-02-29T10:06:41.863Z,9.444033
2024-02-29T10:07:41.830Z,9.443718
2024-02-29T10:08:41.805Z,9.443686
2024-02-29T10:09:41.824Z,9.443857
2024-02-29T10:10:41.808Z,9.443711
2024-02-29T10:11:42.805Z,9.443631
2024-02-29T10:12:41.783Z,9.443674
2024-02-29T10:13:41.807Z,9.443638
2024-02-29T10:14:41.748Z,9.443647
2024-02-29T10:15:41.792Z,9.443507
2024-02-29T10:16:42.768Z,9.443656
2024-02-29T10:17:41.798Z,9.443639
2024-02-29T10:18:41.742Z,9.443677
2024-02-29T10:19:41.739Z,9.443761
2024-02-29T10:20:41.733Z,9.443760
2024-02-29T10:21:41.724Z,9.443662
2024-02-29T10:22:41.722Z,9.443697
2024-02-29T10:23:41.724Z,9.443726
2024-02-29T10:24:41.710Z,9.443784
2024-02-29T10:25:41.672Z,9.443748
2024-02-29T10:26:41.691Z,9.443732
2024-02-29T10:27:41.932Z,9.443670
2024-02-29T10:28:41.692Z,9.443808
2024-02-29T10:29:41.687Z,9.443758
2024-02-29T10:30:41.741Z,9.443731
2024-02-29T10:31:41.632Z,9.443686
2024-02-29T10:32:41.672Z,9.443722
2024-02-29T10:33:41.673Z,9.443711
2024-02-29T10:34:41.641Z,9.443729
2024-02-29T10:35:41.623Z,9.443720
2024-02-29T10:36:41.771Z,9.443811
2024-02-29T10:37:41.605Z,9.443710
2024-02-29T10:38:41.594Z,9.443726
2024-02-29T10:39:41.629Z,9.443723
2024-02-29T10:40:41.577Z,9.443660
2024-02-29T10:41:41.605Z,9.443760
2024-02-29T10:42:41.610Z,9.443770
2024-02-29T10:43:41.589Z,9.443707
2024-02-29T10:44:41.580Z,9.443736
2024-02-29T10:45:41.613Z,9.443649
2024-02-29T10:46:41.585Z,9.443685
2024-02-29T10:47:41.600Z,9.443614
2024-02-29T10:48:41.577Z,9.443679
2024-02-29T10:49:41.553Z,9.443663
2024-02-29T10:50:41.522Z,9.443726
2024-02-29T10:51:41.548Z,9.443641
2024-02-29T10:52:41.532Z,9.443636
2024-02-29T10:53:41.537Z,9.443686
2024-02-29T10:54:41.542Z,9.443675
2024-02-29T10:55:41.540Z,9.443677
2024-02-29T10:56:43.239Z,9.443624
2024-02-29T10:57:42.513Z,9.443620
2024-02-29T10:58:41.501Z,9.443582
2024-02-29T10:59:41.471Z,9.443657
2024-02-29T11:00:41.541Z,9.443665
2024-02-29T11:01:41.543Z,9.443663
2024-02-29T11:02:41.469Z,9.443715
2024-02-29T11:03:41.493Z,9.443624
2024-02-29T11:04:42.211Z,9.443786
2024-02-29T11:05:41.454Z,9.443692
2024-02-29T11:06:41.463Z,9.443666
2024-02-29T11:07:41.503Z,9.443732
2024-02-29T11:08:41.650Z,9.443740
2024-02-29T11:09:41.542Z,9.443709
2024-02-29T11:10:41.470Z,9.443694
2024-02-29T11:11:41.412Z,9.443775
2024-02-29T11:12:41.533Z,9.443647
2024-02-29T11:13:41.388Z,9.443642
2024-02-29T11:14:41.409Z,9.443664
2024-02-29T11:15:41.578Z,9.443679
2024-02-29T11:16:41.389Z,9.443612
2024-02-29T11:17:42.412Z,9.443732
2024-02-29T11:18:41.403Z,9.443603
2024-02-29T11:19:47.988Z,9.443665
2024-02-29T11:20:43.359Z,9.443709
2024-02-29T11:21:41.409Z,9.443686
2024-02-29T11:22:41.340Z,9.443662
2024-02-29T11:23:41.332Z,9.443635
2024-02-29T11:24:41.580Z,9.443717
2024-02-29T11:25:41.432Z,9.443677
2024-02-29T11:26:41.297Z,9.443513
2024-02-29T11:27:41.333Z,9.443645
2024-02-29T11:28:41.292Z,9.443681
2024-02-29T11:29:41.344Z,9.443633
2024-02-29T11:30:41.341Z,9.443647
2024-02-29T11:31:41.259Z,9.443563
2024-02-29T11:32:41.260Z,9.443554
2024-02-29T11:33:41.299Z,9.443666
2024-02-29T11:34:41.250Z,9.443662
2024-02-29T11:35:41.299Z,9.443624
2024-02-29T11:36:41.287Z,9.443651
2024-02-29T11:37:41.303Z,9.443515
2024-02-29T11:38:41.296Z,9.443480
2024-02-29T11:39:41.252Z,9.443627
2024-02-29T11:40:41.236Z,9.443730
2024-02-29T11:41:41.301Z,9.443695
2024-02-29T11:42:41.240Z,9.443685
2024-02-29T11:43:41.206Z,9.443707
2024-02-29T11:44:41.195Z,9.443717